Terminal Aerodrome Forecast
Issued by NWS Tampa Bay Area, FL

Home | Current Version | Previous Version | Text Only | Print | Product List | Glossary On
Versions: 1 2 3 4 5 6 7 8 9 10 11 12 13 14 15 16 17
567
FTUS42 KTBW 261727
TAFFMY
TAF
KFMY 261727Z 2618/2718 VRB06KT P6SM SKC
     FM262100 27009KT P6SM FEW045
     FM270200 31006KT P6SM SKC
     FM270500 VRB04KT P6SM SKC
     FM271700 32008KT P6SM SKC=

USA.gov is the U.S. government's official web portal to all federal, state and local government web resources and services.